Time;durP1;ratioP1;P1;durP2;ratioP2;P2;SDS_P1;SDS_P2;PMS_P1;PMS_P2;Temp;Humidity;BMP_temperature;BMP_pressure;BME280_temperature;BME280_humidity;BME280_pressure;Samples;Min_cycle;Max_cycle;Signal;HPM_P1;HPM_P2
2022/06/08 00:01:44;;;;;;;4.15;2.80;;;;;;;;;;6208218;28;20065;-86
2022/06/08 00:04:46;;;;;;;3.50;2.20;;;;;;;;;;6213209;28;20041;-85
2022/06/08 00:07:48;;;;;;;3.42;2.35;;;;;;;;;;6204741;28;20152;-85
2022/06/08 00:10:49;;;;;;;4.35;2.13;;;;;;;;;;6212327;28;20048;-85
2022/06/08 00:13:52;;;;;;;2.83;2.28;;;;;;;;;;6186051;28;20063;-84
2022/06/08 00:16:54;;;;;;;2.45;2.25;;;;;;;;;;6218645;28;20092;-85
2022/06/08 00:19:55;;;;;;;2.63;2.42;;;;;;;;;;6214534;28;20192;-85
2022/06/08 00:22:57;;;;;;;2.78;2.50;;;;;;;;;;6210070;28;20064;-84
2022/06/08 00:25:59;;;;;;;4.88;2.75;;;;;;;;;;6209020;28;20133;-86
2022/06/08 00:29:00;;;;;;;4.25;2.78;;;;;;;;;;6197777;28;20105;-86
2022/06/08 00:32:04;;;;;;;25.63;3.90;;;;;;;;;;6194674;28;20137;-87
2022/06/08 00:35:06;;;;;;;5.38;3.30;;;;;;;;;;6205698;28;20507;-86
2022/06/08 00:38:08;;;;;;;92.03;6.67;;;;;;;;;;6199010;28;20058;-85
2022/06/08 00:41:31;;;;;;;12.93;3.63;;;;;;;;;;6189941;28;20066;-86
2022/06/08 00:44:49;;;;;;;28.90;4.30;;;;;;;;;;6207922;28;20068;-85
2022/06/08 00:48:00;;;;;;;16.25;3.58;;;;;;;;;;6192218;28;20189;-85
2022/06/08 00:51:02;;;;;;;5.88;3.10;;;;;;;;;;6206468;28;20121;-85
2022/06/08 00:54:08;;;;;;;5.30;3.40;;;;;;;;;;6204979;28;20062;-85
2022/06/08 00:57:18;;;;;;;11.27;3.50;;;;;;;;;;6198203;28;20096;-85
2022/06/08 01:00:28;;;;;;;38.03;4.57;;;;;;;;;;6200149;28;20046;-85
2022/06/08 01:03:30;;;;;;;34.67;4.00;;;;;;;;;;6221085;28;20478;-84
2022/06/08 01:06:33;;;;;;;26.42;4.10;;;;;;;;;;6185386;28;20050;-84
2022/06/08 01:09:39;;;;;;;9.43;3.67;;;;;;;;;;6191818;28;20053;-86
2022/06/08 01:12:42;;;;;;;15.50;3.47;;;;;;;;;;6205802;28;20086;-85
2022/06/08 01:15:46;;;;;;;32.78;5.10;;;;;;;;;;6203412;28;20129;-83
2022/06/08 01:18:52;;;;;;;12.90;3.38;;;;;;;;;;6217099;28;20716;-86
2022/06/08 01:21:57;;;;;;;15.13;3.10;;;;;;;;;;6180829;28;20122;-85
2022/06/08 01:25:12;;;;;;;6.50;3.05;;;;;;;;;;6212414;28;20045;-85
2022/06/08 01:28:41;;;;;;;5.20;2.97;;;;;;;;;;6200517;28;20062;-85
2022/06/08 01:32:06;;;;;;;9.63;3.10;;;;;;;;;;6202005;28;20066;-85
2022/06/08 01:35:17;;;;;;;4.65;2.88;;;;;;;;;;6211315;28;20043;-85
2022/06/08 01:38:44;;;;;;;8.50;3.10;;;;;;;;;;6199160;28;20129;-84
2022/06/08 01:41:57;;;;;;;73.15;4.60;;;;;;;;;;6192786;28;20070;-86
2022/06/08 01:45:29;;;;;;;31.65;4.00;;;;;;;;;;6211499;28;20095;-85
2022/06/08 01:49:01;;;;;;;68.25;4.38;;;;;;;;;;6196442;28;20046;-85
2022/06/08 01:52:20;;;;;;;47.92;5.88;;;;;;;;;;6206030;28;20081;-86
2022/06/08 01:55:56;;;;;;;22.38;3.85;;;;;;;;;;6215113;28;20654;-86
2022/06/08 01:59:06;;;;;;;53.13;4.97;;;;;;;;;;6165254;28;20062;-84
2022/06/08 02:02:15;;;;;;;17.50;3.03;;;;;;;;;;6217499;28;20046;-85
2022/06/08 02:06:06;;;;;;;29.70;3.58;;;;;;;;;;6204305;28;20058;-84
2022/06/08 02:09:15;;;;;;;;;;;;;;;;;;6155337;28;20054;-83
2022/06/08 02:12:18;;;;;;;27.65;5.00;;;;;;;;;;6200657;28;19961;-84
2022/06/08 02:15:31;;;;;;;11.00;3.38;;;;;;;;;;6207019;28;20117;-84
2022/06/08 02:18:44;;;;;;;82.13;6.68;;;;;;;;;;6200508;28;20048;-83
2022/06/08 02:21:54;;;;;;;5.85;2.85;;;;;;;;;;6188293;28;20058;-85
2022/06/08 02:25:23;;;;;;;30.25;3.80;;;;;;;;;;6214962;28;20056;-84
2022/06/08 02:28:32;;;;;;;17.30;3.75;;;;;;;;;;6209151;28;20046;-82
2022/06/08 02:34:27;;;;;;;12.25;3.40;;;;;;;;;;6209180;28;20056;-81
2022/06/08 02:35:37;;;;;;;8.35;3.40;;;;;;;;;;6205424;28;20048;-83
2022/06/08 02:38:43;;;;;;;8.93;3.58;;;;;;;;;;6211761;28;20514;-82
2022/06/08 02:41:50;;;;;;;8.30;3.42;;;;;;;;;;6218922;28;20050;-83
2022/06/08 02:44:57;;;;;;;12.45;3.85;;;;;;;;;;6208007;28;20046;-83
2022/06/08 02:48:05;;;;;;;36.75;4.25;;;;;;;;;;6216687;28;20045;-83
2022/06/08 02:51:08;;;;;;;15.05;3.58;;;;;;;;;;6201221;28;20080;-83
2022/06/08 02:54:22;;;;;;;8.73;3.30;;;;;;;;;;6215839;28;20038;-83
2022/06/08 02:57:43;;;;;;;10.27;3.50;;;;;;;;;;6195106;28;20053;-83
2022/06/08 03:01:00;;;;;;;30.23;4.18;;;;;;;;;;6213717;28;20042;-83
2022/06/08 03:04:14;;;;;;;8.88;2.90;;;;;;;;;;6216334;28;20049;-83
2022/06/08 03:07:24;;;;;;;11.00;3.10;;;;;;;;;;6204582;28;20362;-82
2022/06/08 03:10:32;;;;;;;7.25;3.25;;;;;;;;;;6217461;28;20048;-82
2022/06/08 03:13:41;;;;;;;6.60;3.17;;;;;;;;;;6207937;28;20045;-83
2022/06/08 03:17:00;;;;;;;4.55;2.97;;;;;;;;;;6204156;28;20093;-83
2022/06/08 03:20:04;;;;;;;23.25;5.35;;;;;;;;;;6202654;28;20039;-80
2022/06/08 03:23:06;;;;;;;5.88;3.28;;;;;;;;;;6213781;28;20053;-84
2022/06/08 03:26:09;;;;;;;11.40;3.90;;;;;;;;;;6194769;28;20086;-83
2022/06/08 03:29:11;;;;;;;5.90;3.30;;;;;;;;;;6206105;28;20312;-82
2022/06/08 03:32:13;;;;;;;9.30;3.38;;;;;;;;;;6212372;28;20073;-84
2022/06/08 03:35:16;;;;;;;7.82;3.60;;;;;;;;;;6195613;28;20500;-84
2022/06/08 03:38:19;;;;;;;7.28;3.83;;;;;;;;;;6185946;28;20407;-83
2022/06/08 03:41:22;;;;;;;6.78;3.90;;;;;;;;;;6205926;28;20161;-83
2022/06/08 03:44:24;;;;;;;5.93;3.63;;;;;;;;;;6208599;28;20129;-83
2022/06/08 03:47:30;;;;;;;13.02;5.03;;;;;;;;;;6193231;28;20088;-82
2022/06/08 03:50:31;;;;;;;10.57;4.53;;;;;;;;;;6199603;28;20062;-83
2022/06/08 03:53:40;;;;;;;10.98;4.28;;;;;;;;;;6182032;28;20530;-83
2022/06/08 03:56:45;;;;;;;14.10;4.35;;;;;;;;;;6207704;28;20825;-82
2022/06/08 03:59:49;;;;;;;22.52;5.25;;;;;;;;;;6193577;28;20043;-82
2022/06/08 04:02:51;;;;;;;8.25;4.15;;;;;;;;;;6214835;28;20037;-82
2022/06/08 04:06:01;;;;;;;9.75;4.70;;;;;;;;;;6198470;28;20034;-82
2022/06/08 04:09:07;;;;;;;7.38;4.50;;;;;;;;;;6195386;28;20049;-84
2022/06/08 04:12:10;;;;;;;6.90;4.00;;;;;;;;;;6187692;28;20526;-84
2022/06/08 04:15:41;;;;;;;12.52;4.75;;;;;;;;;;6202660;28;20115;-83
2022/06/08 04:18:35;;;;;;;8.18;5.10;;;;;;;;;;6196587;28;20073;-82
2022/06/08 04:21:39;;;;;;;7.03;4.85;;;;;;;;;;6207126;28;20035;-82
2022/06/08 04:24:43;;;;;;;7.15;4.07;;;;;;;;;;6211460;28;20646;-84
2022/06/08 04:27:47;;;;;;;6.82;4.35;;;;;;;;;;6207924;28;20039;-82
2022/06/08 04:30:49;;;;;;;5.90;4.40;;;;;;;;;;6207533;28;20183;-84
2022/06/08 04:33:53;;;;;;;7.10;4.45;;;;;;;;;;6189132;28;20122;-83
2022/06/08 04:37:00;;;;;;;7.18;4.13;;;;;;;;;;6201793;28;20062;-82
2022/06/08 04:40:15;;;;;;;7.03;4.65;;;;;;;;;;6210361;28;20377;-82
2022/06/08 04:43:19;;;;;;;7.30;4.68;;;;;;;;;;6184817;28;20050;-82
2022/06/08 04:46:21;;;;;;;7.68;5.30;;;;;;;;;;6202758;28;20044;-82
2022/06/08 04:49:26;;;;;;;5.90;4.22;;;;;;;;;;6209823;28;20042;-82
2022/06/08 04:52:29;;;;;;;6.05;4.07;;;;;;;;;;6202687;28;20046;-81
2022/06/08 04:55:32;;;;;;;5.53;3.67;;;;;;;;;;6183011;28;20042;-82
2022/06/08 04:58:35;;;;;;;;;;;;;;;;;;6184496;28;20046;-83
2022/06/08 05:01:38;;;;;;;4.65;3.45;;;;;;;;;;6209260;28;19948;-82
2022/06/08 05:04:42;;;;;;;6.75;4.35;;;;;;;;;;6206078;28;20046;-82
2022/06/08 05:07:45;;;;;;;8.10;4.60;;;;;;;;;;6209335;28;20049;-82
2022/06/08 05:10:50;;;;;;;9.93;5.32;;;;;;;;;;6186919;28;20042;-81
2022/06/08 05:13:54;;;;;;;6.70;4.60;;;;;;;;;;6190038;28;20134;-83
2022/06/08 05:16:56;;;;;;;6.70;4.53;;;;;;;;;;6203813;28;20045;-84
2022/06/08 05:19:59;;;;;;;6.72;4.32;;;;;;;;;;6203296;28;20050;-82
2022/06/08 05:23:03;;;;;;;5.63;4.20;;;;;;;;;;6206677;28;20160;-81
2022/06/08 05:26:05;;;;;;;6.82;4.40;;;;;;;;;;6184394;28;20050;-84
2022/06/08 05:29:07;;;;;;;4.32;3.72;;;;;;;;;;6193522;28;20050;-82
2022/06/08 05:32:11;;;;;;;6.57;4.60;;;;;;;;;;6189365;28;20042;-82
2022/06/08 05:35:14;;;;;;;6.80;4.88;;;;;;;;;;6207920;28;20048;-82
2022/06/08 05:38:16;;;;;;;7.68;5.80;;;;;;;;;;6189035;28;20057;-82
2022/06/08 05:41:20;;;;;;;8.27;5.55;;;;;;;;;;6191268;28;20052;-82
2022/06/08 05:44:23;;;;;;;10.23;5.47;;;;;;;;;;6206775;28;20085;-82
2022/06/08 05:47:29;;;;;;;8.45;5.10;;;;;;;;;;6200487;28;20049;-82
2022/06/08 05:50:33;;;;;;;6.38;4.30;;;;;;;;;;6206085;28;20042;-82
2022/06/08 05:53:35;;;;;;;;;;;;;;;;;;6208754;28;20137;-82
2022/06/08 05:56:37;;;;;;;5.00;3.63;;;;;;;;;;6204963;28;19921;-82
2022/06/08 05:59:39;;;;;;;6.20;3.60;;;;;;;;;;6202166;28;20053;-81
2022/06/08 06:02:42;;;;;;;4.93;3.20;;;;;;;;;;6206935;28;20756;-82
2022/06/08 06:05:47;;;;;;;4.47;3.67;;;;;;;;;;6195505;28;20049;-83
2022/06/08 06:08:51;;;;;;;5.22;3.25;;;;;;;;;;6191309;28;20042;-82
2022/06/08 06:11:55;;;;;;;5.60;3.47;;;;;;;;;;6204681;28;20105;-81
2022/06/08 06:15:05;;;;;;;4.53;2.95;;;;;;;;;;6208234;28;20399;-83
2022/06/08 06:18:07;;;;;;;;;;;;;;;;;;6209243;28;20046;-81
2022/06/08 06:21:25;;;;;;;2.90;2.60;;;;;;;;;;6191637;28;20374;-81
2022/06/08 06:24:50;;;;;;;3.10;2.80;;;;;;;;;;6208091;28;20042;-83
2022/06/08 06:28:10;;;;;;;3.05;2.53;;;;;;;;;;6193841;28;20046;-83
2022/06/08 06:31:41;;;;;;;3.75;2.70;;;;;;;;;;6201725;28;20038;-82
2022/06/08 06:34:46;;;;;;;2.80;2.50;;;;;;;;;;6210209;28;20045;-83
2022/06/08 06:37:49;;;;;;;3.38;2.80;;;;;;;;;;6203160;28;20575;-81
2022/06/08 06:40:53;;;;;;;2.70;2.50;;;;;;;;;;6209340;28;20364;-82
2022/06/08 06:43:56;;;;;;;1.92;1.83;;;;;;;;;;6184612;28;20508;-83
2022/06/08 06:47:07;;;;;;;3.63;1.80;;;;;;;;;;6222203;28;20070;-82
2022/06/08 06:50:38;;;;;;;2.10;1.90;;;;;;;;;;6170140;28;20050;-83
2022/06/08 06:53:41;;;;;;;;;;;;;;;;;;6189252;28;20064;-83
2022/06/08 06:56:42;;;;;;;3.45;2.08;;;;;;;;;;6210308;28;19921;-83
2022/06/08 06:59:51;;;;;;;1.60;1.50;;;;;;;;;;6198482;28;20062;-83
2022/06/08 07:02:53;;;;;;;3.70;1.60;;;;;;;;;;6215401;28;20038;-82
2022/06/08 07:05:56;;;;;;;1.35;1.25;;;;;;;;;;6197653;28;20049;-82
2022/06/08 07:09:00;;;;;;;1.43;1.33;;;;;;;;;;6213369;28;20061;-83
2022/06/08 07:12:10;;;;;;;2.53;1.50;;;;;;;;;;6206821;28;20045;-80
2022/06/08 07:15:20;;;;;;;2.67;1.50;;;;;;;;;;6202538;28;20454;-83
2022/06/08 07:18:23;;;;;;;2.08;1.27;;;;;;;;;;6204000;28;20050;-85
2022/06/08 07:21:25;;;;;;;2.25;1.40;;;;;;;;;;6207342;28;20042;-82
2022/06/08 07:24:31;;;;;;;2.80;1.42;;;;;;;;;;6219803;28;20061;-82
2022/06/08 07:27:34;;;;;;;1.52;1.42;;;;;;;;;;6217194;28;20065;-83
2022/06/08 07:30:36;;;;;;;4.00;1.50;;;;;;;;;;6208003;28;20058;-82
2022/06/08 07:33:39;;;;;;;2.95;1.60;;;;;;;;;;6216156;28;20191;-83
2022/06/08 07:36:44;;;;;;;3.63;1.30;;;;;;;;;;6202580;28;20045;-84
2022/06/08 07:39:46;;;;;;;3.00;1.60;;;;;;;;;;6180971;28;20066;-83
2022/06/08 07:42:47;;;;;;;4.03;1.40;;;;;;;;;;6178820;28;20110;-84
2022/06/08 07:45:49;;;;;;;1.63;1.30;;;;;;;;;;6202648;28;20057;-83
2022/06/08 07:52:17;;;;;;;2.78;1.30;;;;;;;;;;6200029;28;20373;-82
2022/06/08 07:55:19;;;;;;;1.73;1.13;;;;;;;;;;6187282;28;20043;-81
2022/06/08 07:58:21;;;;;;;2.47;1.23;;;;;;;;;;6169538;28;20126;-82
2022/06/08 08:01:23;;;;;;;3.13;1.27;;;;;;;;;;6192649;28;20125;-82
2022/06/08 08:04:25;;;;;;;2.13;1.10;;;;;;;;;;6196176;28;20035;-83
2022/06/08 08:07:26;;;;;;;1.90;1.17;;;;;;;;;;6202063;28;20046;-83
2022/06/08 08:10:28;;;;;;;1.92;1.10;;;;;;;;;;6196733;28;20062;-84
2022/06/08 08:13:30;;;;;;;1.67;1.20;;;;;;;;;;6194214;28;20058;-84
2022/06/08 08:16:32;;;;;;;3.22;1.30;;;;;;;;;;6206484;28;20053;-81
2022/06/08 08:19:38;;;;;;;1.30;1.20;;;;;;;;;;6200024;28;20042;-84
2022/06/08 08:22:40;;;;;;;2.13;1.08;;;;;;;;;;6205603;28;20048;-81
2022/06/08 08:25:41;;;;;;;4.70;1.52;;;;;;;;;;6209578;28;20106;-80
2022/06/08 08:28:43;;;;;;;2.83;1.30;;;;;;;;;;6211263;28;20047;-81
2022/06/08 08:31:45;;;;;;;3.15;1.20;;;;;;;;;;6198410;28;20455;-84
2022/06/08 08:34:48;;;;;;;1.88;1.20;;;;;;;;;;6183511;28;20164;-84
2022/06/08 08:37:50;;;;;;;1.67;1.17;;;;;;;;;;6171161;28;20042;-84
2022/06/08 08:40:55;;;;;;;2.28;1.23;;;;;;;;;;6208869;28;20050;-83
2022/06/08 08:43:57;;;;;;;1.30;1.10;;;;;;;;;;6187691;28;20057;-83
2022/06/08 08:47:10;;;;;;;3.20;1.30;;;;;;;;;;6206892;28;20050;-85
2022/06/08 08:50:20;;;;;;;;;;;;;;;;;;6189143;28;20043;-84
2022/06/08 08:53:24;;;;;;;2.10;1.20;;;;;;;;;;6208357;28;19945;-85
2022/06/08 08:56:35;;;;;;;2.67;1.30;;;;;;;;;;6206608;28;20069;-82
2022/06/08 08:59:41;;;;;;;1.92;1.38;;;;;;;;;;6201937;28;20118;-84
2022/06/08 09:06:22;;;;;;;4.32;1.35;;;;;;;;;;6195001;28;20080;-84
2022/06/08 09:09:32;;;;;;;3.22;1.25;;;;;;;;;;6204903;28;20042;-85
2022/06/08 09:12:35;;;;;;;2.97;1.20;;;;;;;;;;6190056;28;20115;-84
2022/06/08 09:15:54;;;;;;;1.40;1.30;;;;;;;;;;6183404;28;20050;-85
2022/06/08 09:18:57;;;;;;;1.33;1.23;;;;;;;;;;6200344;28;20065;-83
2022/06/08 09:22:18;;;;;;;2.47;1.23;;;;;;;;;;6175547;28;20107;-84
2022/06/08 09:25:29;;;;;;;1.30;1.02;;;;;;;;;;6182989;28;20082;-85
2022/06/08 09:28:32;;;;;;;1.48;1.17;;;;;;;;;;6198916;28;20049;-84
2022/06/08 09:31:35;;;;;;;2.05;1.40;;;;;;;;;;6204254;28;20045;-85
2022/06/08 09:34:38;;;;;;;2.80;1.30;;;;;;;;;;6215627;28;20042;-84
2022/06/08 09:37:40;;;;;;;2.50;1.10;;;;;;;;;;6204338;28;20049;-83
2022/06/08 09:41:02;;;;;;;2.47;1.20;;;;;;;;;;6206400;28;20120;-83
2022/06/08 09:44:22;;;;;;;2.97;1.40;;;;;;;;;;6203617;28;20609;-83
2022/06/08 09:51:27;;;;;;;4.90;1.20;;;;;;;;;;6200146;28;20038;-84
2022/06/08 09:54:31;;;;;;;3.60;1.38;;;;;;;;;;6203718;28;20058;-82
2022/06/08 09:57:41;;;;;;;2.92;1.38;;;;;;;;;;6180593;28;20101;-84
2022/06/08 10:01:04;;;;;;;1.75;1.17;;;;;;;;;;6209428;28;20050;-84
2022/06/08 10:04:26;;;;;;;3.80;1.30;;;;;;;;;;6195143;28;20126;-81
2022/06/08 10:07:55;;;;;;;2.25;1.20;;;;;;;;;;6177260;28;20047;-85
2022/06/08 10:14:55;;;;;;;3.53;1.38;;;;;;;;;;6164353;28;20596;-83
2022/06/08 10:18:11;;;;;;;4.03;1.60;;;;;;;;;;6199196;28;20503;-82
2022/06/08 10:21:24;;;;;;;1.65;1.30;;;;;;;;;;6202200;28;20105;-84
2022/06/08 10:24:36;;;;;;;3.05;1.45;;;;;;;;;;6215516;28;20132;-81
2022/06/08 10:28:02;;;;;;;4.43;2.13;;;;;;;;;;6217515;28;20222;-82
2022/06/08 10:31:30;;;;;;;2.72;1.95;;;;;;;;;;6212444;28;20046;-82
2022/06/08 10:34:35;;;;;;;3.03;1.95;;;;;;;;;;6196829;28;20062;-82
2022/06/08 10:37:40;;;;;;;3.05;2.00;;;;;;;;;;6174780;28;20106;-84
2022/06/08 10:40:48;;;;;;;2.40;1.55;;;;;;;;;;6208715;28;20131;-84
2022/06/08 10:43:55;;;;;;;2.53;1.63;;;;;;;;;;6208716;28;20068;-82
2022/06/08 10:47:15;;;;;;;1.58;1.48;;;;;;;;;;6216115;28;20050;-83
2022/06/08 10:50:34;;;;;;;1.95;1.50;;;;;;;;;;6194417;28;20047;-83
2022/06/08 10:57:42;;;;;;;3.58;1.50;;;;;;;;;;6212898;28;20097;-83
2022/06/08 11:01:02;;;;;;;2.30;1.35;;;;;;;;;;6191481;28;20049;-84
2022/06/08 11:04:07;;;;;;;1.73;1.40;;;;;;;;;;6213600;28;20058;-84
2022/06/08 11:07:13;;;;;;;2.80;1.70;;;;;;;;;;6209784;28;20038;-84
2022/06/08 11:10:44;;;;;;;3.50;1.55;;;;;;;;;;6215859;28;20120;-81
2022/06/08 11:13:51;;;;;;;2.85;1.52;;;;;;;;;;6182623;28;20057;-83
2022/06/08 11:16:58;;;;;;;4.95;2.00;;;;;;;;;;6204261;28;20590;-83
2022/06/08 11:20:22;;;;;;;3.90;1.15;;;;;;;;;;6209000;28;20051;-84
2022/06/08 11:23:31;;;;;;;2.30;1.10;;;;;;;;;;6214161;28;20610;-83
2022/06/08 11:26:38;;;;;;;2.47;1.52;;;;;;;;;;6196442;28;20137;-83
2022/06/08 11:29:43;;;;;;;2.90;1.65;;;;;;;;;;6186111;28;20574;-83
2022/06/08 11:33:11;;;;;;;5.43;1.38;;;;;;;;;;6209933;28;20092;-84
2022/06/08 11:36:53;;;;;;;2.25;1.30;;;;;;;;;;6182509;28;20050;-84
2022/06/08 11:40:12;;;;;;;4.10;1.40;;;;;;;;;;6193202;28;20097;-84
2022/06/08 11:43:15;;;;;;;3.83;1.40;;;;;;;;;;6181053;28;20074;-84
2022/06/08 11:46:26;;;;;;;5.25;3.55;;;;;;;;;;6200127;28;20056;-84
2022/06/08 11:49:41;;;;;;;6.40;3.35;;;;;;;;;;6195083;28;20050;-84
2022/06/08 11:53:13;;;;;;;9.57;6.35;;;;;;;;;;6196358;28;20046;-83
2022/06/08 11:56:33;;;;;;;7.53;2.80;;;;;;;;;;6199499;28;20041;-84
2022/06/08 11:59:37;;;;;;;15.10;12.88;;;;;;;;;;6166257;28;20074;-83
2022/06/08 12:02:38;;;;;;;6.55;3.70;;;;;;;;;;6176173;28;20117;-84
2022/06/08 12:05:40;;;;;;;2.87;1.93;;;;;;;;;;6196351;28;20054;-83
2022/06/08 12:08:46;;;;;;;9.60;8.70;;;;;;;;;;6210678;28;20042;-83
2022/06/08 12:12:04;;;;;;;5.60;4.97;;;;;;;;;;6190917;28;20041;-84
2022/06/08 12:15:37;;;;;;;6.28;2.65;;;;;;;;;;6199367;28;20073;-83
2022/06/08 12:18:43;;;;;;;3.28;1.30;;;;;;;;;;6194608;28;20512;-83
2022/06/08 12:21:48;;;;;;;4.78;1.50;;;;;;;;;;6205622;28;20547;-84
2022/06/08 12:25:13;;;;;;;2.75;1.50;;;;;;;;;;6213682;28;20053;-83
2022/06/08 12:28:21;;;;;;;4.90;1.40;;;;;;;;;;6208958;28;20140;-83
2022/06/08 12:31:28;;;;;;;4.70;1.70;;;;;;;;;;6211277;28;20095;-83
2022/06/08 12:34:40;;;;;;;5.82;1.70;;;;;;;;;;6201326;28;20053;-83
2022/06/08 12:37:44;;;;;;;5.25;1.55;;;;;;;;;;6204525;28;20097;-83
2022/06/08 12:41:10;;;;;;;3.58;1.50;;;;;;;;;;6211640;28;20042;-84
2022/06/08 12:44:28;;;;;;;3.20;1.73;;;;;;;;;;6200692;28;20101;-84
2022/06/08 12:47:42;;;;;;;5.13;2.03;;;;;;;;;;6209922;28;20106;-83
2022/06/08 12:50:44;;;;;;;4.97;1.80;;;;;;;;;;6207603;28;20344;-84
2022/06/08 12:53:45;;;;;;;7.07;1.88;;;;;;;;;;6213587;28;20088;-83
2022/06/08 12:56:50;;;;;;;4.10;1.80;;;;;;;;;;6213250;28;20049;-83
2022/06/08 12:59:55;;;;;;;7.53;1.90;;;;;;;;;;6206667;28;20038;-83
2022/06/08 13:03:07;;;;;;;6.95;1.90;;;;;;;;;;6191913;28;20042;-84
2022/06/08 13:06:10;;;;;;;6.53;2.20;;;;;;;;;;6202034;28;20416;-85
2022/06/08 13:09:17;;;;;;;6.22;2.30;;;;;;;;;;6210608;28;20038;-84
2022/06/08 13:12:21;;;;;;;6.03;2.70;;;;;;;;;;6210095;28;20048;-83
2022/06/08 13:15:30;;;;;;;7.47;2.40;;;;;;;;;;6217861;28;20058;-83
2022/06/08 13:18:33;;;;;;;6.10;2.60;;;;;;;;;;6209353;28;20062;-84
2022/06/08 13:21:35;;;;;;;6.40;2.15;;;;;;;;;;6200395;28;20046;-83
2022/06/08 13:24:37;;;;;;;6.25;2.65;;;;;;;;;;6200578;28;20552;-84
2022/06/08 13:27:39;;;;;;;4.15;2.35;;;;;;;;;;6184927;28;20140;-82
2022/06/08 13:30:41;;;;;;;5.72;2.47;;;;;;;;;;6189669;28;20125;-82
2022/06/08 13:34:02;;;;;;;7.53;2.78;;;;;;;;;;6172741;28;20066;-84
2022/06/08 13:37:04;;;;;;;4.85;2.42;;;;;;;;;;6198222;28;20042;-84
2022/06/08 13:40:14;;;;;;;8.43;2.53;;;;;;;;;;6202773;28;20253;-84
2022/06/08 13:43:16;;;;;;;5.43;2.30;;;;;;;;;;6167701;28;20086;-82
2022/06/08 13:46:23;;;;;;;5.88;2.65;;;;;;;;;;6196797;28;20045;-83
2022/06/08 13:49:26;;;;;;;3.67;2.45;;;;;;;;;;6206220;28;20124;-81
2022/06/08 13:52:31;;;;;;;5.75;2.55;;;;;;;;;;6192072;28;20059;-83
2022/06/08 13:55:38;;;;;;;5.22;2.22;;;;;;;;;;6204161;28;20129;-83
2022/06/08 13:58:40;;;;;;;5.28;1.85;;;;;;;;;;6205850;28;20512;-83
2022/06/08 14:01:42;;;;;;;3.47;2.00;;;;;;;;;;6196519;28;20065;-83
2022/06/08 14:04:46;;;;;;;5.82;2.20;;;;;;;;;;6191733;28;20061;-83
2022/06/08 14:14:39;;;;;;;4.80;2.00;;;;;;;;;;6188754;28;20263;-84
2022/06/08 14:17:43;;;;;;;4.78;2.47;;;;;;;;;;6178732;28;20058;-82
2022/06/08 14:20:45;;;;;;;4.45;1.95;;;;;;;;;;6191700;28;20134;-83
2022/06/08 14:23:49;;;;;;;5.38;2.40;;;;;;;;;;6206738;28;20061;-82
2022/06/08 14:26:52;;;;;;;3.58;2.30;;;;;;;;;;6205706;28;20141;-84
2022/06/08 14:30:18;;;;;;;3.90;2.45;;;;;;;;;;6189132;28;20053;-83
2022/06/08 14:33:29;;;;;;;5.13;2.50;;;;;;;;;;6213617;28;20057;-83
2022/06/08 14:36:31;;;;;;;8.43;2.47;;;;;;;;;;6198699;28;20048;-83
2022/06/08 14:39:52;;;;;;;4.85;1.92;;;;;;;;;;6169341;28;20046;-81
2022/06/08 14:42:54;;;;;;;5.60;2.10;;;;;;;;;;6171545;28;20184;-77
2022/06/08 14:45:57;;;;;;;3.57;2.80;;;;;;;;;;6178186;28;20070;-77
2022/06/08 14:48:59;;;;;;;7.97;2.67;;;;;;;;;;6188645;28;20408;-84
2022/06/08 14:52:02;;;;;;;6.43;2.42;;;;;;;;;;6196795;28;20594;-83
2022/06/08 14:56:23;;;;;;;6.28;2.65;;;;;;;;;;6202271;28;20122;-83
2022/06/08 14:58:34;;;;;;;5.18;2.30;;;;;;;;;;6204500;28;20042;-83
2022/06/08 15:01:36;;;;;;;2.72;2.05;;;;;;;;;;6181435;28;20048;-83
2022/06/08 15:04:37;;;;;;;7.35;2.33;;;;;;;;;;6186603;28;20054;-83
2022/06/08 15:07:39;;;;;;;6.88;2.75;;;;;;;;;;6201582;28;20043;-82
2022/06/08 15:14:01;;;;;;;4.32;2.30;;;;;;;;;;6200067;28;20110;-83
2022/06/08 15:17:14;;;;;;;6.43;2.60;;;;;;;;;;6177688;28;20310;-83
2022/06/08 15:20:22;;;;;;;2.42;1.98;;;;;;;;;;6193068;28;20107;-84
2022/06/08 15:23:23;;;;;;;9.02;2.72;;;;;;;;;;6204219;28;20190;-80
2022/06/08 15:26:25;;;;;;;6.82;2.92;;;;;;;;;;6185208;28;20070;-83
2022/06/08 15:29:30;;;;;;;7.55;2.63;;;;;;;;;;6203592;28;20042;-82
2022/06/08 15:32:31;;;;;;;7.53;2.53;;;;;;;;;;6201952;28;20050;-82
2022/06/08 15:35:34;;;;;;;6.40;3.05;;;;;;;;;;6193519;28;20129;-83
2022/06/08 15:38:42;;;;;;;5.55;2.97;;;;;;;;;;6208501;28;20046;-83
2022/06/08 15:41:46;;;;;;;3.67;2.50;;;;;;;;;;6199686;28;20046;-83
2022/06/08 15:44:48;;;;;;;3.78;2.58;;;;;;;;;;6195754;28;20054;-83
2022/06/08 15:48:01;;;;;;;5.43;2.63;;;;;;;;;;6203384;28;20100;-83
2022/06/08 15:51:09;;;;;;;;;;;;;;;;;;6201042;28;20046;-84
2022/06/08 15:54:16;;;;;;;4.43;2.40;;;;;;;;;;6204451;28;19980;-84
2022/06/08 15:57:18;;;;;;;4.78;2.65;;;;;;;;;;6191800;28;20042;-84
2022/06/08 16:00:24;;;;;;;4.63;2.42;;;;;;;;;;6211345;28;20101;-83
2022/06/08 16:03:25;;;;;;;4.13;1.95;;;;;;;;;;6213191;28;20048;-83
2022/06/08 16:06:28;;;;;;;5.07;2.50;;;;;;;;;;6205450;28;20057;-83
2022/06/08 16:09:30;;;;;;;4.28;2.67;;;;;;;;;;6197479;28;20476;-84
2022/06/08 16:12:32;;;;;;;3.70;1.88;;;;;;;;;;6213899;28;20081;-83
2022/06/08 16:15:35;;;;;;;4.60;2.08;;;;;;;;;;6198893;28;20071;-85
2022/06/08 16:18:36;;;;;;;3.88;2.50;;;;;;;;;;6212811;28;20168;-84
2022/06/08 16:21:38;;;;;;;4.20;2.35;;;;;;;;;;6208906;28;20062;-84
2022/06/08 16:24:41;;;;;;;4.10;2.10;;;;;;;;;;6214561;28;20046;-84
2022/06/08 16:27:45;;;;;;;3.13;1.70;;;;;;;;;;6210124;28;20101;-84
2022/06/08 16:30:47;;;;;;;2.20;1.92;;;;;;;;;;6207925;28;20463;-83
2022/06/08 16:33:56;;;;;;;3.45;2.10;;;;;;;;;;6217025;28;20101;-83
2022/06/08 16:36:58;;;;;;;3.33;1.95;;;;;;;;;;6206543;28;20046;-83
2022/06/08 16:40:01;;;;;;;2.85;1.98;;;;;;;;;;6214525;28;20075;-83
2022/06/08 16:43:04;;;;;;;5.00;2.00;;;;;;;;;;6213851;28;20440;-83
2022/06/08 16:46:08;;;;;;;2.22;1.75;;;;;;;;;;6206170;28;20034;-83
2022/06/08 16:49:10;;;;;;;3.25;1.98;;;;;;;;;;6202143;28;20428;-84
2022/06/08 16:52:12;;;;;;;4.75;2.00;;;;;;;;;;6195308;28;20156;-84
2022/06/08 16:55:13;;;;;;;3.20;2.10;;;;;;;;;;6208447;28;20049;-82
2022/06/08 17:01:35;;;;;;;3.30;1.88;;;;;;;;;;6197645;28;20512;-82
2022/06/08 17:04:39;;;;;;;2.83;1.80;;;;;;;;;;6197322;28;20053;-82
2022/06/08 17:07:41;;;;;;;3.20;1.80;;;;;;;;;;6202158;28;20102;-82
2022/06/08 17:14:04;;;;;;;3.35;1.90;;;;;;;;;;6203697;28;20522;-82
2022/06/08 17:17:08;;;;;;;3.58;2.05;;;;;;;;;;6200900;28;20076;-82
2022/06/08 17:20:13;;;;;;;2.47;1.80;;;;;;;;;;6193435;28;20050;-78
2022/06/08 17:23:15;;;;;;;4.32;1.80;;;;;;;;;;6205177;28;20184;-80
2022/06/08 17:26:19;;;;;;;2.15;1.52;;;;;;;;;;6179806;28;20284;-82
2022/06/08 17:29:22;;;;;;;3.38;1.50;;;;;;;;;;6188811;28;20053;-82
2022/06/08 17:32:24;;;;;;;1.77;1.45;;;;;;;;;;6199814;28;20070;-81
2022/06/08 17:35:27;;;;;;;2.50;1.23;;;;;;;;;;6198427;28;20049;-81
2022/06/08 17:38:30;;;;;;;1.50;1.40;;;;;;;;;;6208293;28;20151;-81
2022/06/08 17:41:34;;;;;;;3.22;1.60;;;;;;;;;;6168025;28;20050;-80
2022/06/08 17:44:42;;;;;;;3.00;1.42;;;;;;;;;;6177572;28;20050;-81
2022/06/08 17:47:45;;;;;;;2.35;1.30;;;;;;;;;;6196332;28;20084;-81
2022/06/08 17:50:49;;;;;;;1.75;1.48;;;;;;;;;;6191217;28;20053;-81
2022/06/08 17:53:52;;;;;;;3.15;1.40;;;;;;;;;;6176389;28;20246;-81
2022/06/08 17:56:55;;;;;;;3.65;1.70;;;;;;;;;;6179508;28;20046;-81
2022/06/08 17:59:58;;;;;;;2.85;1.40;;;;;;;;;;6187286;28;20053;-80
2022/06/08 18:03:01;;;;;;;3.95;1.75;;;;;;;;;;6199031;28;20058;-81
2022/06/08 18:06:06;;;;;;;2.05;1.60;;;;;;;;;;6202318;28;20133;-80
2022/06/08 18:09:10;;;;;;;1.40;1.30;;;;;;;;;;6206532;28;20039;-81
2022/06/08 18:12:16;;;;;;;2.10;1.23;;;;;;;;;;6163697;28;20055;-81
2022/06/08 18:15:18;;;;;;;1.88;1.10;;;;;;;;;;6197576;28;20128;-80
2022/06/08 18:18:20;;;;;;;1.45;1.00;;;;;;;;;;6202954;28;20125;-82
2022/06/08 18:21:21;;;;;;;1.48;1.10;;;;;;;;;;6203741;28;20133;-81
2022/06/08 18:24:24;;;;;;;2.17;1.02;;;;;;;;;;6193332;28;20046;-81
2022/06/08 18:27:40;;;;;;;2.15;1.00;;;;;;;;;;6208677;28;20141;-81
2022/06/08 18:30:42;;;;;;;1.30;1.15;;;;;;;;;;6201742;28;20131;-82
2022/06/08 18:33:45;;;;;;;3.63;1.55;;;;;;;;;;6220010;28;20088;-82
2022/06/08 18:36:47;;;;;;;2.17;1.20;;;;;;;;;;6212319;28;20307;-81
2022/06/08 18:39:55;;;;;;;2.58;1.27;;;;;;;;;;6216466;28;20048;-82
2022/06/08 18:43:18;;;;;;;4.35;1.30;;;;;;;;;;6210700;28;20042;-81
2022/06/08 18:46:21;;;;;;;2.25;1.40;;;;;;;;;;6205367;28;20041;-81
2022/06/08 18:49:24;;;;;;;2.05;1.30;;;;;;;;;;6214650;28;20045;-81
2022/06/08 18:52:28;;;;;;;;;;;;;;;;;;6201389;28;20046;-80
2022/06/08 18:55:37;;;;;;;2.42;1.33;;;;;;;;;;6208175;28;19921;-82
2022/06/08 18:58:38;;;;;;;1.33;1.17;;;;;;;;;;6202667;28;20049;-81
2022/06/08 19:01:40;;;;;;;2.60;1.30;;;;;;;;;;6206330;28;20273;-81
2022/06/08 19:04:42;;;;;;;3.38;1.13;;;;;;;;;;6203177;28;20134;-81
2022/06/08 19:07:48;;;;;;;2.20;1.33;;;;;;;;;;6207234;28;20070;-79
2022/06/08 19:10:50;;;;;;;1.67;1.10;;;;;;;;;;6181942;28;20133;-82
2022/06/08 19:13:51;;;;;;;2.17;1.13;;;;;;;;;;6200463;28;20053;-82
2022/06/08 19:16:54;;;;;;;1.58;1.10;;;;;;;;;;6200581;28;20038;-81
2022/06/08 19:23:20;;;;;;;2.58;1.20;;;;;;;;;;6216360;28;20110;-82